createdAt,value
2022-10-14T00:02:26.529Z,88.90
2022-10-14T00:05:50.566Z,88.70
2022-10-14T00:09:16.268Z,88.70
2022-10-14T00:12:41.573Z,88.40
2022-10-14T00:16:07.266Z,88.40
2022-10-14T00:19:30.736Z,88.10
2022-10-14T00:22:54.671Z,88.00
2022-10-14T00:26:23.264Z,88.00
2022-10-14T00:29:47.335Z,87.80
2022-10-14T00:33:10.734Z,88.10
2022-10-14T00:36:34.182Z,88.10
2022-10-14T00:39:57.581Z,88.00
2022-10-14T00:43:24.919Z,87.90
2022-10-14T00:46:50.975Z,87.70
2022-10-14T00:50:16.966Z,87.90
2022-10-14T00:53:43.919Z,88.10
2022-10-14T00:57:08.504Z,88.40
2022-10-14T01:00:33.618Z,88.50
2022-10-14T01:03:57.047Z,88.40
2022-10-14T01:07:35.545Z,89.30
2022-10-14T01:11:08.588Z,87.80
2022-10-14T01:14:43.731Z,87.90
2022-10-14T01:18:30.610Z,88.10
2022-10-14T01:22:04.808Z,87.90
2022-10-14T01:25:37.143Z,88.40
2022-10-14T01:29:19.044Z,88.30
2022-10-14T01:33:09.734Z,88.10
2022-10-14T01:36:43.547Z,87.80
2022-10-14T01:40:18.924Z,88.40
2022-10-14T01:43:46.656Z,88.50
2022-10-14T01:47:19.575Z,88.60
2022-10-14T01:50:47.359Z,88.80
2022-10-14T01:54:18.178Z,88.90
2022-10-14T01:57:46.648Z,88.80
2022-10-14T02:01:12.619Z,88.70
2022-10-14T02:04:36.040Z,88.30
2022-10-14T02:08:12.709Z,88.10
2022-10-14T02:11:46.889Z,87.40
2022-10-14T02:15:21.214Z,87.40
2022-10-14T02:18:55.036Z,87.00
2022-10-14T02:22:28.890Z,86.90
2022-10-14T02:25:55.899Z,86.70
2022-10-14T02:29:21.040Z,87.00
2022-10-14T02:32:48.734Z,87.40
2022-10-14T02:36:18.914Z,87.70
2022-10-14T02:39:50.006Z,87.90
2022-10-14T02:43:15.252Z,88.20
2022-10-14T02:46:41.596Z,88.70
2022-10-14T02:50:09.214Z,89.40
2022-10-14T02:53:32.888Z,90.00
2022-10-14T02:56:56.444Z,90.20
2022-10-14T03:00:23.385Z,90.40
2022-10-14T03:03:49.875Z,90.40
2022-10-14T03:07:13.793Z,90.50
2022-10-14T03:10:42.049Z,90.50
2022-10-14T03:14:07.477Z,90.80
2022-10-14T03:17:32.366Z,90.30
2022-10-14T03:20:59.865Z,90.40
2022-10-14T03:24:30.389Z,90.50
2022-10-14T03:28:13.331Z,90.60
2022-10-14T03:31:59.659Z,90.60
2022-10-14T03:35:44.731Z,90.60
2022-10-14T03:39:12.598Z,90.70
2022-10-14T03:42:49.675Z,90.90
2022-10-14T03:46:13.336Z,90.90
2022-10-14T03:49:37.061Z,90.80
2022-10-14T03:53:09.657Z,90.70
2022-10-14T03:56:33.860Z,90.40
2022-10-14T03:59:57.441Z,90.50
2022-10-14T04:03:26.668Z,90.50
2022-10-14T04:06:52.028Z,90.60
2022-10-14T04:10:19.600Z,90.60
2022-10-14T04:13:48.192Z,90.50
2022-10-14T04:17:11.724Z,90.60
2022-10-14T04:20:35.324Z,90.70
2022-10-14T04:23:59.632Z,90.70
2022-10-14T04:27:41.660Z,90.60
2022-10-14T04:31:06.786Z,90.80
2022-10-14T04:34:41.985Z,90.40
2022-10-14T04:38:08.679Z,90.40
2022-10-14T04:41:39.000Z,90.30
2022-10-14T04:45:04.358Z,90.20
2022-10-14T04:48:40.115Z,90.10
2022-10-14T04:52:05.006Z,90.20
2022-10-14T04:55:36.998Z,90.20
2022-10-14T04:59:01.189Z,90.30
2022-10-14T05:02:47.260Z,90.30
2022-10-14T05:06:11.498Z,90.30
2022-10-14T05:09:39.807Z,90.40
2022-10-14T05:13:15.480Z,90.40
2022-10-14T05:16:50.496Z,90.40
2022-10-14T05:20:22.113Z,90.50
2022-10-14T05:23:49.410Z,90.50
2022-10-14T05:27:13.186Z,90.60
2022-10-14T05:30:37.028Z,90.60
2022-10-14T05:34:04.476Z,90.50
2022-10-14T05:37:30.000Z,90.50
2022-10-14T05:40:54.684Z,90.30
2022-10-14T05:44:18.507Z,90.30
2022-10-14T05:47:45.272Z,90.30
2022-10-14T05:51:15.365Z,90.10
2022-10-14T05:54:40.305Z,90.20
2022-10-14T05:58:05.535Z,90.20
2022-10-14T06:01:36.468Z,90.30
2022-10-14T06:05:00.048Z,90.40
2022-10-14T06:08:27.241Z,90.40
2022-10-14T06:11:52.058Z,90.30
2022-10-14T06:15:15.811Z,90.30
2022-10-14T06:18:40.321Z,90.40
2022-10-14T06:22:03.786Z,90.50
2022-10-14T06:25:27.803Z,90.60
2022-10-14T06:28:52.659Z,90.50
2022-10-14T06:32:16.543Z,90.50
2022-10-14T06:35:40.038Z,90.40
2022-10-14T06:39:04.489Z,90.50
2022-10-14T06:42:28.629Z,90.60
2022-10-14T06:45:59.494Z,91.20
2022-10-14T06:49:23.026Z,90.70
2022-10-14T06:52:46.844Z,91.00
2022-10-14T06:56:12.397Z,91.00
2022-10-14T06:59:35.909Z,91.00
2022-10-14T07:03:01.716Z,91.10
2022-10-14T07:06:25.405Z,91.10
2022-10-14T07:09:49.168Z,91.40
2022-10-14T07:13:12.657Z,91.60
2022-10-14T07:16:36.208Z,91.50
2022-10-14T07:20:01.050Z,91.40
2022-10-14T07:23:24.531Z,91.20
2022-10-14T07:26:48.101Z,91.00
2022-10-14T07:30:15.292Z,90.90
2022-10-14T07:33:42.002Z,91.10
2022-10-14T07:37:06.970Z,90.80
2022-10-14T07:40:30.699Z,91.00
2022-10-14T07:43:58.785Z,91.70
2022-10-14T07:47:22.895Z,92.10
2022-10-14T07:50:51.689Z,92.60
2022-10-14T07:54:20.466Z,92.60
2022-10-14T07:57:44.480Z,92.60
2022-10-14T08:01:08.575Z,92.40
2022-10-14T08:04:32.545Z,92.10
2022-10-14T08:07:55.961Z,91.80
2022-10-14T08:11:23.617Z,91.60
2022-10-14T08:14:47.131Z,91.30
2022-10-14T08:18:13.228Z,91.10
2022-10-14T08:21:37.041Z,90.90
2022-10-14T08:25:00.540Z,90.70
2022-10-14T08:28:25.545Z,90.60
2022-10-14T08:31:49.403Z,90.50
2022-10-14T08:35:13.403Z,90.60
2022-10-14T08:38:37.006Z,90.80
2022-10-14T08:42:44.143Z,91.10
2022-10-14T08:46:21.036Z,90.60
2022-10-14T08:49:59.265Z,91.40
2022-10-14T08:53:29.269Z,91.30
2022-10-14T08:56:57.342Z,91.60
2022-10-14T09:00:23.139Z,92.10
2022-10-14T09:03:48.058Z,92.40
2022-10-14T09:07:18.888Z,92.50
2022-10-14T09:10:45.241Z,92.40
2022-10-14T09:14:16.913Z,92.40
2022-10-14T09:17:50.707Z,92.00
2022-10-14T09:21:47.875Z,91.70
2022-10-14T09:25:16.557Z,91.50
2022-10-14T09:28:43.864Z,91.60
2022-10-14T09:32:13.019Z,91.50
2022-10-14T09:35:42.384Z,91.20
2022-10-14T09:39:07.589Z,91.00
2022-10-14T09:42:52.108Z,90.80
2022-10-14T09:46:15.628Z,90.30
2022-10-14T09:49:45.526Z,90.90
2022-10-14T09:53:17.753Z,90.80
2022-10-14T09:56:43.042Z,90.60
2022-10-14T10:00:09.916Z,90.50
2022-10-14T10:03:36.170Z,90.80
2022-10-14T10:07:03.144Z,90.90
2022-10-14T10:10:26.688Z,91.20
2022-10-14T10:13:51.512Z,92.00
2022-10-14T10:17:20.347Z,92.90
2022-10-14T10:21:02.193Z,93.50
2022-10-14T10:24:28.728Z,93.60
2022-10-14T10:27:58.488Z,93.10
2022-10-14T10:31:56.965Z,92.20
2022-10-14T10:35:30.740Z,90.00
2022-10-14T10:39:01.388Z,90.60
2022-10-14T10:42:37.980Z,90.30
2022-10-14T10:46:21.543Z,90.00
2022-10-14T10:50:13.920Z,89.00
2022-10-14T10:54:01.318Z,87.40
2022-10-14T10:57:47.591Z,87.70
2022-10-14T11:01:31.669Z,87.60
2022-10-14T11:05:08.486Z,86.90
2022-10-14T11:09:08.819Z,87.00
2022-10-14T11:12:41.999Z,86.50
2022-10-14T11:16:15.406Z,86.30
2022-10-14T11:19:54.146Z,85.50
2022-10-14T11:23:49.781Z,85.00
2022-10-14T11:27:24.903Z,83.60
2022-10-14T11:30:57.993Z,84.10
2022-10-14T11:34:42.809Z,84.30
2022-10-14T11:38:38.678Z,83.90
2022-10-14T11:42:21.671Z,84.20
2022-10-14T11:45:56.130Z,86.10
2022-10-14T11:49:27.664Z,86.50
2022-10-14T11:52:59.182Z,86.60
2022-10-14T11:56:47.887Z,86.90
2022-10-14T12:00:20.511Z,86.40
2022-10-14T12:03:58.630Z,89.20
2022-10-14T12:07:33.175Z,90.00
2022-10-14T12:11:04.246Z,90.50
2022-10-14T12:14:36.026Z,90.80
2022-10-14T12:18:02.118Z,90.50
2022-10-14T12:21:36.770Z,90.70
2022-10-14T12:25:08.724Z,90.60
2022-10-14T12:28:33.214Z,90.40
2022-10-14T12:32:22.442Z,90.30
2022-10-14T12:36:00.919Z,88.50
2022-10-14T12:39:42.741Z,89.90
2022-10-14T12:43:18.301Z,89.20
2022-10-14T12:46:45.860Z,89.50
2022-10-14T12:50:36.380Z,90.10
2022-10-14T12:54:12.552Z,87.90
2022-10-14T12:57:41.533Z,88.30
2022-10-14T13:01:18.682Z,89.00
2022-10-14T13:04:50.006Z,86.20
2022-10-14T13:08:29.288Z,86.80
2022-10-14T13:12:43.854Z,86.10
2022-10-14T13:16:07.944Z,85.40
2022-10-14T13:19:46.346Z,87.10
2022-10-14T13:23:42.449Z,85.70
2022-10-14T13:27:30.015Z,84.50
2022-10-14T13:31:06.233Z,85.00
2022-10-14T13:34:52.480Z,85.40
2022-10-14T13:38:18.791Z,85.50
2022-10-14T13:41:50.236Z,85.70
2022-10-14T13:45:15.977Z,84.50
2022-10-14T13:48:47.918Z,84.50
2022-10-14T13:52:22.114Z,84.10
2022-10-14T13:55:53.847Z,82.90
2022-10-14T13:59:43.380Z,83.60
2022-10-14T14:03:22.668Z,82.90
2022-10-14T14:07:00.477Z,82.90
2022-10-14T14:10:31.033Z,83.70
2022-10-14T14:14:01.629Z,83.50
2022-10-14T14:17:31.109Z,82.60
2022-10-14T14:20:59.235Z,82.40
2022-10-14T14:24:29.340Z,81.70
2022-10-14T14:27:56.962Z,81.30
2022-10-14T14:31:47.881Z,81.20
2022-10-14T14:35:17.016Z,82.10
2022-10-14T14:38:55.322Z,83.00
2022-10-14T14:42:18.905Z,83.70
2022-10-14T14:45:48.276Z,84.40
2022-10-14T14:49:18.416Z,84.60
2022-10-14T14:52:44.195Z,85.40
2022-10-14T14:56:14.965Z,86.30
2022-10-14T14:59:43.076Z,87.30
2022-10-14T15:03:06.587Z,88.20
2022-10-14T15:06:30.096Z,89.10
2022-10-14T15:09:58.848Z,89.80
2022-10-14T15:13:45.242Z,89.90
2022-10-14T15:17:30.393Z,89.50
2022-10-14T15:21:08.047Z,89.40
2022-10-14T15:24:31.481Z,89.60
2022-10-14T15:27:57.421Z,90.10
2022-10-14T15:31:20.917Z,90.00
2022-10-14T15:34:44.546Z,90.00
2022-10-14T15:38:17.561Z,90.10
2022-10-14T15:41:41.698Z,89.90
2022-10-14T15:45:08.570Z,90.00
2022-10-14T15:48:32.034Z,90.00
2022-10-14T15:51:55.672Z,90.10
2022-10-14T15:55:22.304Z,90.30
2022-10-14T15:58:45.900Z,90.30
2022-10-14T16:02:19.450Z,90.30
2022-10-14T16:05:42.944Z,90.10
2022-10-14T16:09:06.597Z,90.30
2022-10-14T16:12:29.949Z,90.20
2022-10-14T16:15:58.948Z,90.60
2022-10-14T16:19:24.233Z,90.70
2022-10-14T16:22:47.790Z,90.60
2022-10-14T16:26:14.417Z,90.70
2022-10-14T16:29:37.908Z,90.50
2022-10-14T16:33:01.553Z,90.70
2022-10-14T16:36:26.729Z,90.70
2022-10-14T16:39:52.860Z,90.60
2022-10-14T16:43:16.554Z,90.70
2022-10-14T16:46:57.914Z,90.60
2022-10-14T16:50:21.516Z,90.70
2022-10-14T16:53:48.825Z,90.70
2022-10-14T16:57:13.005Z,90.80
2022-10-14T17:00:36.562Z,90.90
2022-10-14T17:04:02.628Z,90.90
2022-10-14T17:07:27.297Z,91.00
2022-10-14T17:10:52.461Z,90.90
2022-10-14T17:14:19.043Z,90.90
2022-10-14T17:17:42.520Z,91.10
2022-10-14T17:21:08.916Z,91.20
2022-10-14T17:24:32.475Z,91.20
2022-10-14T17:27:57.375Z,91.10
2022-10-14T17:31:22.653Z,91.10
2022-10-14T17:34:46.090Z,91.10
2022-10-14T17:38:10.008Z,91.20
2022-10-14T17:41:33.503Z,91.10
2022-10-14T17:44:58.265Z,91.20
2022-10-14T17:48:21.729Z,91.20
2022-10-14T17:51:45.414Z,91.30
2022-10-14T17:55:10.208Z,91.40
2022-10-14T17:58:34.095Z,91.60
2022-10-14T18:02:03.364Z,91.70
2022-10-14T18:05:27.355Z,91.50
2022-10-14T18:08:53.726Z,91.70
2022-10-14T18:12:17.714Z,91.70
2022-10-14T18:15:41.504Z,91.80
2022-10-14T18:19:09.888Z,91.80
2022-10-14T18:22:33.491Z,91.80
2022-10-14T18:25:58.306Z,91.90
2022-10-14T18:29:22.245Z,91.90
2022-10-14T18:32:45.708Z,91.90
2022-10-14T18:36:15.609Z,91.90
2022-10-14T18:39:39.564Z,91.60
2022-10-14T18:43:05.405Z,91.70
2022-10-14T18:46:31.992Z,91.80
2022-10-14T18:49:55.553Z,91.70
2022-10-14T18:53:20.708Z,91.70
2022-10-14T18:56:45.735Z,91.60
2022-10-14T19:00:13.597Z,91.40
2022-10-14T19:03:39.763Z,91.20
2022-10-14T19:07:04.164Z,90.90
2022-10-14T19:10:28.984Z,90.90
2022-10-14T19:13:55.222Z,90.80
2022-10-14T19:17:18.788Z,90.80
2022-10-14T19:20:42.866Z,90.80
2022-10-14T19:24:08.108Z,90.90
2022-10-14T19:27:32.867Z,91.00
2022-10-14T19:30:56.273Z,91.00
2022-10-14T19:34:19.685Z,91.00
2022-10-14T19:37:43.018Z,91.10
2022-10-14T19:41:09.183Z,91.10
2022-10-14T19:44:34.216Z,90.80
2022-10-14T19:47:57.861Z,90.70
2022-10-14T19:51:21.322Z,90.80
2022-10-14T19:54:45.279Z,90.80
2022-10-14T19:58:08.911Z,90.90
2022-10-14T20:01:33.948Z,90.60
2022-10-14T20:04:57.662Z,90.80
2022-10-14T20:08:21.659Z,91.10
2022-10-14T20:11:45.153Z,91.10
2022-10-14T20:15:11.158Z,91.30
2022-10-14T20:18:36.938Z,91.30
2022-10-14T20:22:01.568Z,91.10
2022-10-14T20:25:25.087Z,91.00
2022-10-14T20:28:50.212Z,91.00
2022-10-14T20:32:13.910Z,91.00
2022-10-14T20:35:38.808Z,91.10
2022-10-14T20:39:02.367Z,91.20
2022-10-14T20:42:26.011Z,91.20
2022-10-14T20:45:49.384Z,91.40
2022-10-14T20:49:12.882Z,91.60
2022-10-14T20:52:37.855Z,92.00
2022-10-14T20:56:05.950Z,91.70
2022-10-14T20:59:29.670Z,91.70
2022-10-14T21:02:53.088Z,91.90
2022-10-14T21:06:19.509Z,92.10
2022-10-14T21:09:44.482Z,92.20
2022-10-14T21:13:07.895Z,92.30
2022-10-14T21:16:34.391Z,92.40
2022-10-14T21:19:57.872Z,92.50
2022-10-14T21:23:21.321Z,92.60
2022-10-14T21:26:48.293Z,92.60
2022-10-14T21:30:14.081Z,92.60
2022-10-14T21:33:37.948Z,92.80
2022-10-14T21:37:01.437Z,92.80
2022-10-14T21:40:24.992Z,92.70
2022-10-14T21:43:50.172Z,92.80
2022-10-14T21:47:13.649Z,92.80
2022-10-14T21:50:37.055Z,93.00
2022-10-14T21:54:00.495Z,92.90
2022-10-14T21:57:24.100Z,92.90
2022-10-14T22:00:49.251Z,93.00
2022-10-14T22:04:12.986Z,93.00
2022-10-14T22:07:36.571Z,93.00
2022-10-14T22:11:00.091Z,93.10
2022-10-14T22:14:23.528Z,93.10
2022-10-14T22:17:48.265Z,93.20
2022-10-14T22:21:12.321Z,93.00
2022-10-14T22:24:36.207Z,93.10
2022-10-14T22:27:59.621Z,93.20
2022-10-14T22:31:24.100Z,93.10
2022-10-14T22:34:50.079Z,93.10
2022-10-14T22:38:13.450Z,93.10
2022-10-14T22:41:37.179Z,93.20
2022-10-14T22:45:00.583Z,93.30
2022-10-14T22:48:24.002Z,93.40
2022-10-14T22:51:50.108Z,93.40
2022-10-14T22:55:14.330Z,93.40
2022-10-14T22:58:38.008Z,93.50
2022-10-14T23:02:01.418Z,93.40
2022-10-14T23:05:24.920Z,93.40
2022-10-14T23:08:49.752Z,93.50
2022-10-14T23:12:13.166Z,93.60
2022-10-14T23:15:37.336Z,93.60
2022-10-14T23:19:01.202Z,93.70
2022-10-14T23:22:24.950Z,93.90
2022-10-14T23:25:49.985Z,94.00
2022-10-14T23:29:13.436Z,94.00
2022-10-14T23:32:36.897Z,94.10
2022-10-14T23:36:04.985Z,94.10
2022-10-14T23:39:28.906Z,94.00
2022-10-14T23:42:53.702Z,94.30
2022-10-14T23:46:17.389Z,94.30
2022-10-14T23:49:40.886Z,94.40
2022-10-14T23:53:04.399Z,94.40
2022-10-14T23:56:27.873Z,94.40
2022-10-14T23:59:52.757Z,94.50
